Time;durP1;ratioP1;P1;durP2;ratioP2;P2;SDS_P1;SDS_P2;PMS_P1;PMS_P2;Temp;Humidity;BMP_temperature;BMP_pressure;BME280_temperature;BME280_humidity;BME280_pressure;Samples;Min_cycle;Max_cycle;Signal;HPM_P1;HPM_P2
2022/04/17 00:00:35;;;;;;;;;;;;;;;;;;5117170;28;20315;-54
2022/04/17 00:03:02;;;;;;;;;;;;;;;;;;5116690;28;19947;-55
2022/04/17 00:05:29;;;;;;;;;;;;;;;;;;5116803;27;19959;-48
2022/04/17 00:07:55;;;;;;;;;;;;;;;;;;5097798;28;19915;-55
2022/04/17 00:10:22;;;;;;;;;;;;;;;;;;5096082;28;19939;-46
2022/04/17 00:12:48;;;;;;;;;;;;;;;;;;5095212;28;19916;-47
2022/04/17 00:15:15;;;;;;;;;;;;;;;;;;5096937;28;19936;-42
2022/04/17 00:17:45;;;;;;;;;;;;;;;;;;5096719;28;20408;-49
2022/04/17 00:20:11;;;;;;;;;;;;;;;;;;5096175;28;19916;-47
2022/04/17 00:22:38;;;;;;;;;;;;;;;;;;5095942;28;20347;-54
2022/04/17 00:25:04;;;;;;;;;;;;;;;;;;5095960;28;19996;-47
2022/04/17 00:27:30;;;;;;;;;;;;;;;;;;5096068;28;19919;-52
2022/04/17 00:29:57;;;;;;;;;;;;;;;;;;5095886;28;19908;-49
2022/04/17 00:32:23;;;;;;;;;;;;;;;;;;5095894;28;19935;-53
2022/04/17 00:34:50;;;;;;;;;;;;;;;;;;5095656;28;20358;-48
2022/04/17 00:37:16;;;;;;;;;;;;;;;;;;5095378;28;20277;-46
2022/04/17 00:39:43;;;;;;;;;;;;;;;;;;5095742;28;19912;-47
2022/04/17 00:42:10;;;;;;;;;;;;;;;;;;5095321;28;19919;-50
2022/04/17 00:44:37;;;;;;;;;;;;;;;;;;5093877;28;19908;-47
2022/04/17 00:47:03;;;;;;;;;;;;;;;;;;5100291;28;19907;-44
2022/04/17 00:49:30;;;;;;;;;;;;;;;;;;5115885;28;19915;-45
2022/04/17 00:51:56;;;;;;;;;;;;;;;;;;5115743;28;19912;-45
2022/04/17 00:54:22;;;;;;;;;;;;;;;;;;5115336;28;20288;-50
2022/04/17 00:56:49;;;;;;;;;;;;;;;;;;5115092;28;19999;-46
2022/04/17 00:59:15;;;;;;;;;;;;;;;;;;5114937;28;19908;-48
2022/04/17 01:01:42;;;;;;;;;;;;;;;;;;5113221;28;19916;-53
2022/04/17 01:04:09;;;;;;;;;;;;;;;;;;5093913;28;19927;-57
2022/04/17 01:06:35;;;;;;;;;;;;;;;;;;5094960;28;19912;-54
2022/04/17 01:09:02;;;;;;;;;;;;;;;;;;5115169;28;19907;-56
2022/04/17 01:11:28;;;;;;;;;;;;;;;;;;5115394;28;19948;-48
2022/04/17 01:13:55;;;;;;;;;;;;;;;;;;5115395;28;20342;-53
2022/04/17 01:16:24;;;;;;;;;;;;;;;;;;5115395;28;19908;-51
2022/04/17 01:18:51;;;;;;;;;;;;;;;;;;5115567;28;19908;-53
2022/04/17 01:21:17;;;;;;;;;;;;;;;;;;5115010;28;19955;-49
2022/04/17 01:29:14;;;;;;;;;;;;;;;;;;5114931;28;20381;-55
2022/04/17 01:31:40;;;;;;;;;;;;;;;;;;5115045;28;19953;-53
2022/04/17 01:34:07;;;;;;;;;;;;;;;;;;5115013;28;19907;-48
2022/04/17 01:36:33;;;;;;;;;;;;;;;;;;5115163;28;19908;-50
2022/04/17 01:39:00;;;;;;;;;;;;;;;;;;5114330;28;19912;-54
2022/04/17 01:41:26;;;;;;;;;;;;;;;;;;5114546;28;19915;-52
2022/04/17 01:43:53;;;;;;;;;;;;;;;;;;5114485;28;20370;-56
2022/04/17 01:46:19;;;;;;;;;;;;;;;;;;5114698;28;20393;-48
2022/04/17 01:48:45;;;;;;;;;;;;;;;;;;5114565;28;19908;-53
2022/04/17 01:51:12;;;;;;;;;;;;;;;;;;5114527;28;19908;-52
2022/04/17 01:53:38;;;;;;;;;;;;;;;;;;5114160;28;19964;-56
2022/04/17 01:56:05;;;;;;;;;;;;;;;;;;5113842;28;20389;-48
2022/04/17 01:58:31;;;;;;;;;;;;;;;;;;5114646;28;20347;-52
2022/04/17 02:00:58;;;;;;;;;;;;;;;;;;5114714;27;19971;-52
2022/04/17 02:03:25;;;;;;;;;;;;;;;;;;5112995;28;19919;-56
2022/04/17 02:05:51;;;;;;;;;;;;;;;;;;5113576;28;20007;-54
2022/04/17 02:08:18;;;;;;;;;;;;;;;;;;5114649;28;20015;-54
2022/04/17 02:10:44;;;;;;;;;;;;;;;;;;5114001;28;19965;-45
2022/04/17 02:13:11;;;;;;;;;;;;;;;;;;5113491;28;19923;-48
2022/04/17 02:15:37;;;;;;;;;;;;;;;;;;5114028;28;19951;-56
2022/04/17 02:18:04;;;;;;;;;;;;;;;;;;5114338;28;19908;-57
2022/04/17 02:20:30;;;;;;;;;;;;;;;;;;5114026;28;20418;-48
2022/04/17 02:22:57;;;;;;;;;;;;;;;;;;5113053;28;20270;-50
2022/04/17 02:25:23;;;;;;;;;;;;;;;;;;5113873;28;20281;-56
2022/04/17 02:27:50;;;;;;;;;;;;;;;;;;5113862;28;19908;-56
2022/04/17 02:30:16;;;;;;;;;;;;;;;;;;5113827;28;19951;-55
2022/04/17 02:32:42;;;;;;;;;;;;;;;;;;5113939;28;19908;-53
2022/04/17 02:35:10;;;;;;;;;;;;;;;;;;5113489;28;20006;-49
2022/04/17 02:37:37;;;;;;;;;;;;;;;;;;5113164;27;19914;-50
2022/04/17 02:40:03;;;;;;;;;;;;;;;;;;5113473;28;19912;-56
2022/04/17 02:42:29;;;;;;;;;;;;;;;;;;5113309;28;19955;-57
2022/04/17 02:44:56;;;;;;;;;;;;;;;;;;5113883;28;19915;-58
2022/04/17 02:50:07;;;;;;;;;;;;;;;;;;5113633;28;20431;-54
2022/04/17 02:52:33;;;;;;;;;;;;;;;;;;5113415;28;20358;-44
2022/04/17 02:55:00;;;;;;;;;;;;;;;;;;5113371;28;19908;-52
2022/04/17 02:57:27;;;;;;;;;;;;;;;;;;5113270;28;19930;-51
2022/04/17 02:59:54;;;;;;;;;;;;;;;;;;5112720;28;19916;-53
2022/04/17 03:07:50;;;;;;;;;;;;;;;;;;5093241;28;19911;-51
2022/04/17 03:10:16;;;;;;;;;;;;;;;;;;5092863;28;19915;-51
2022/04/17 03:12:43;;;;;;;;;;;;;;;;;;5092583;28;19911;-53
2022/04/17 03:15:09;;;;;;;;;;;;;;;;;;5091473;28;20346;-54
2022/04/17 03:17:36;;;;;;;;;;;;;;;;;;5091480;28;19908;-55
2022/04/17 03:20:03;;;;;;;;;;;;;;;;;;5092670;28;19915;-48
2022/04/17 03:22:29;;;;;;;;;;;;;;;;;;5092877;28;20278;-50
2022/04/17 03:24:56;;;;;;;;;;;;;;;;;;5103100;28;19912;-50
2022/04/17 03:27:22;;;;;;;;;;;;;;;;;;5117013;28;19908;-51
2022/04/17 03:29:49;;;;;;;;;;;;;;;;;;5119736;28;20293;-52
2022/04/17 03:32:15;;;;;;;;;;;;;;;;;;5120308;27;19995;-52
2022/04/17 03:34:42;;;;;;;;;;;;;;;;;;5119950;27;19907;-53
2022/04/17 03:37:08;;;;;;;;;;;;;;;;;;5119825;27;19947;-56
2022/04/17 03:39:35;;;;;;;;;;;;;;;;;;5120092;28;19965;-50
2022/04/17 03:42:01;;;;;;;;;;;;;;;;;;5106771;27;19918;-51
2022/04/17 03:44:28;;;;;;;;;;;;;;;;;;5099497;28;19954;-44
2022/04/17 03:46:54;;;;;;;;;;;;;;;;;;5103825;28;19916;-47
2022/04/17 03:49:20;;;;;;;;;;;;;;;;;;5120042;27;19908;-54
2022/04/17 03:51:47;;;;;;;;;;;;;;;;;;5120117;27;19911;-46
2022/04/17 03:54:13;;;;;;;;;;;;;;;;;;5119899;27;19919;-53
2022/04/17 03:56:40;;;;;;;;;;;;;;;;;;5119583;27;20407;-54
2022/04/17 03:59:06;;;;;;;;;;;;;;;;;;5119495;27;20289;-54
2022/04/17 04:01:33;;;;;;;;;;;;;;;;;;5120170;27;20200;-54
2022/04/17 04:03:59;;;;;;;;;;;;;;;;;;5118772;27;19908;-41
2022/04/17 04:06:26;;;;;;;;;;;;;;;;;;5118930;27;19922;-44
2022/04/17 04:08:53;;;;;;;;;;;;;;;;;;5118354;27;19908;-53
2022/04/17 04:11:23;;;;;;;;;;;;;;;;;;5118233;27;20345;-47
2022/04/17 04:13:49;;;;;;;;;;;;;;;;;;5119429;27;19908;-55
2022/04/17 04:16:16;;;;;;;;;;;;;;;;;;5119677;27;19908;-53
2022/04/17 04:18:42;;;;;;;;;;;;;;;;;;5118833;27;20350;-49
2022/04/17 04:21:09;;;;;;;;;;;;;;;;;;5118780;27;19916;-45
2022/04/17 04:23:35;;;;;;;;;;;;;;;;;;5119515;27;19986;-41
2022/04/17 04:26:02;;;;;;;;;;;;;;;;;;5119744;27;19904;-42
2022/04/17 04:28:36;;;;;;;;;;;;;;;;;;5119447;27;19908;-48
2022/04/17 04:31:02;;;;;;;;;;;;;;;;;;5119762;27;19949;-48
2022/04/17 04:33:31;;;;;;;;;;;;;;;;;;5119242;27;20035;-51
2022/04/17 04:35:58;;;;;;;;;;;;;;;;;;5119370;27;20039;-54
2022/04/17 04:38:25;;;;;;;;;;;;;;;;;;5116207;27;20384;-53
2022/04/17 04:40:54;;;;;;;;;;;;;;;;;;5115990;28;20282;-46
2022/04/17 04:43:20;;;;;;;;;;;;;;;;;;5114371;28;19952;-53
2022/04/17 04:51:16;;;;;;;;;;;;;;;;;;5095252;28;19939;-54
2022/04/17 04:53:43;;;;;;;;;;;;;;;;;;5094953;28;19908;-56
2022/04/17 04:56:09;;;;;;;;;;;;;;;;;;5095390;28;20003;-50
2022/04/17 04:58:36;;;;;;;;;;;;;;;;;;5095032;28;20019;-48
2022/04/17 05:01:02;;;;;;;;;;;;;;;;;;5094661;28;19950;-56
2022/04/17 05:03:29;;;;;;;;;;;;;;;;;;5095248;28;19968;-54
2022/04/17 05:05:55;;;;;;;;;;;;;;;;;;5106732;28;19919;-53
2022/04/17 05:08:21;;;;;;;;;;;;;;;;;;5115747;28;19915;-55
2022/04/17 05:10:48;;;;;;;;;;;;;;;;;;5115459;28;20380;-48
2022/04/17 05:13:14;;;;;;;;;;;;;;;;;;5115090;28;19912;-53
2022/04/17 05:15:41;;;;;;;;;;;;;;;;;;5115323;28;19911;-51
2022/04/17 05:18:07;;;;;;;;;;;;;;;;;;5115630;28;19914;-53
2022/04/17 05:20:34;;;;;;;;;;;;;;;;;;5115554;28;20431;-53
2022/04/17 05:23:18;;;;;;;;;;;;;;;;;;5115512;28;20045;-54
2022/04/17 05:25:45;;;;;;;;;;;;;;;;;;5115295;28;19914;-47
2022/04/17 05:28:12;;;;;;;;;;;;;;;;;;5115913;28;19912;-51
2022/04/17 05:30:38;;;;;;;;;;;;;;;;;;5115014;28;19908;-50
2022/04/17 05:33:04;;;;;;;;;;;;;;;;;;5115369;28;19935;-50
2022/04/17 05:35:31;;;;;;;;;;;;;;;;;;5115102;28;20236;-54
2022/04/17 05:37:57;;;;;;;;;;;;;;;;;;5096523;28;20002;-46
2022/04/17 05:40:24;;;;;;;;;;;;;;;;;;5094412;28;19913;-54
2022/04/17 05:42:50;;;;;;;;;;;;;;;;;;5094470;28;19922;-51
2022/04/17 05:45:17;;;;;;;;;;;;;;;;;;5094011;28;19904;-56
2022/04/17 05:47:43;;;;;;;;;;;;;;;;;;5094838;28;20355;-55
2022/04/17 05:50:10;;;;;;;;;;;;;;;;;;5094072;28;20006;-55
2022/04/17 05:52:36;;;;;;;;;;;;;;;;;;5094309;28;19909;-56
2022/04/17 05:55:02;;;;;;;;;;;;;;;;;;5094201;28;19908;-52
2022/04/17 05:57:29;;;;;;;;;;;;;;;;;;5093928;28;20244;-47
2022/04/17 05:59:55;;;;;;;;;;;;;;;;;;5094148;28;19915;-50
2022/04/17 06:02:22;;;;;;;;;;;;;;;;;;5093968;28;19991;-49
2022/04/17 06:04:48;;;;;;;;;;;;;;;;;;5093228;28;20351;-51
2022/04/17 06:07:15;;;;;;;;;;;;;;;;;;5094228;28;20263;-48
2022/04/17 06:09:42;;;;;;;;;;;;;;;;;;5094137;28;19973;-48
2022/04/17 06:12:08;;;;;;;;;;;;;;;;;;5093503;28;19914;-50
2022/04/17 06:14:34;;;;;;;;;;;;;;;;;;5093813;28;19919;-51
2022/04/17 06:17:01;;;;;;;;;;;;;;;;;;5093513;28;19918;-54
2022/04/17 06:19:27;;;;;;;;;;;;;;;;;;5099049;28;19915;-48
2022/04/17 06:21:54;;;;;;;;;;;;;;;;;;5113762;28;20308;-50
2022/04/17 06:24:20;;;;;;;;;;;;;;;;;;5113765;28;20297;-47
2022/04/17 06:26:48;;;;;;;;;;;;;;;;;;5113875;28;19930;-48
2022/04/17 06:29:14;;;;;;;;;;;;;;;;;;5111892;28;19914;-45
2022/04/17 06:31:45;;;;;;;;;;;;;;;;;;5114048;28;19961;-52
2022/04/17 06:34:12;;;;;;;;;;;;;;;;;;5113934;28;20006;-55
2022/04/17 06:36:38;;;;;;;;;;;;;;;;;;5113341;28;19991;-54
2022/04/17 06:39:05;;;;;;;;;;;;;;;;;;5112512;28;19908;-51
2022/04/17 06:41:31;;;;;;;;;;;;;;;;;;5113586;28;19998;-56
2022/04/17 06:43:58;;;;;;;;;;;;;;;;;;5113782;28;19911;-53
2022/04/17 06:46:24;;;;;;;;;;;;;;;;;;5113115;28;19918;-52
2022/04/17 06:48:51;;;;;;;;;;;;;;;;;;5113195;28;19993;-48
2022/04/17 06:51:22;;;;;;;;;;;;;;;;;;5113279;28;19919;-50
2022/04/17 06:53:48;;;;;;;;;;;;;;;;;;5113504;28;20292;-48
2022/04/17 06:56:18;;;;;;;;;;;;;;;;;;5114077;28;19912;-51
2022/04/17 06:58:44;;;;;;;;;;;;;;;;;;5113628;28;20282;-42
2022/04/17 07:01:11;;;;;;;;;;;;;;;;;;5112348;28;20298;-45
2022/04/17 07:03:37;;;;;;;;;;;;;;;;;;5113138;28;19952;-40
2022/04/17 07:06:04;;;;;;;;;;;;;;;;;;5112721;28;19920;-42
2022/04/17 07:08:30;;;;;;;;;;;;;;;;;;5113359;28;19911;-48
2022/04/17 07:10:57;;;;;;;;;;;;;;;;;;5113391;28;19904;-50
2022/04/17 07:13:25;;;;;;;;;;;;;;;;;;5113341;28;19908;-42
2022/04/17 07:15:51;;;;;;;;;;;;;;;;;;5113764;28;19987;-42
2022/04/17 07:18:18;;;;;;;;;;;;;;;;;;5113236;28;19908;-56
2022/04/17 07:20:44;;;;;;;;;;;;;;;;;;5113111;28;20003;-56
2022/04/17 07:23:10;;;;;;;;;;;;;;;;;;5112585;28;20351;-44
2022/04/17 07:25:37;;;;;;;;;;;;;;;;;;5113430;28;19912;-51
2022/04/17 07:28:03;;;;;;;;;;;;;;;;;;5113307;28;19908;-53
2022/04/17 07:30:30;;;;;;;;;;;;;;;;;;5113533;28;19919;-55
2022/04/17 07:32:57;;;;;;;;;;;;;;;;;;5113484;28;19947;-48
2022/04/17 07:35:23;;;;;;;;;;;;;;;;;;5097872;28;20427;-54
2022/04/17 07:37:50;;;;;;;;;;;;;;;;;;5092826;28;19908;-54
2022/04/17 07:40:17;;;;;;;;;;;;;;;;;;5093080;28;19912;-55
2022/04/17 07:42:44;;;;;;;;;;;;;;;;;;5094030;28;19997;-45
2022/04/17 07:45:10;;;;;;;;;;;;;;;;;;5113186;28;19951;-50
2022/04/17 07:47:37;;;;;;;;;;;;;;;;;;5111816;28;19908;-46
2022/04/17 07:50:03;;;;;;;;;;;;;;;;;;5113555;28;19934;-47
2022/04/17 07:52:30;;;;;;;;;;;;;;;;;;5113427;28;19908;-49
2022/04/17 07:54:56;;;;;;;;;;;;;;;;;;5112824;28;20304;-46
2022/04/17 07:57:23;;;;;;;;;;;;;;;;;;5113205;28;20278;-55
2022/04/17 07:59:50;;;;;;;;;;;;;;;;;;5112841;28;19915;-50
2022/04/17 08:02:28;;;;;;;;;;;;;;;;;;5113094;28;19912;-50
2022/04/17 08:04:54;;;;;;;;;;;;;;;;;;5112866;28;20406;-50
2022/04/17 08:07:21;;;;;;;;;;;;;;;;;;5112706;28;19907;-47
2022/04/17 08:09:47;;;;;;;;;;;;;;;;;;5112690;28;19975;-46
2022/04/17 08:12:14;;;;;;;;;;;;;;;;;;5113141;28;19908;-55
2022/04/17 08:14:40;;;;;;;;;;;;;;;;;;5116485;28;19947;-54
2022/04/17 08:17:07;;;;;;;;;;;;;;;;;;5116041;28;20385;-54
2022/04/17 08:19:35;;;;;;;;;;;;;;;;;;5116578;28;19907;-57
2022/04/17 08:22:02;;;;;;;;;;;;;;;;;;5116627;28;19916;-55
2022/04/17 08:24:30;;;;;;;;;;;;;;;;;;5116860;28;19908;-44
2022/04/17 08:26:57;;;;;;;;;;;;;;;;;;5116852;28;19908;-53
2022/04/17 08:29:24;;;;;;;;;;;;;;;;;;5116546;28;19907;-52
2022/04/17 08:31:50;;;;;;;;;;;;;;;;;;5116814;28;19908;-46
2022/04/17 08:34:16;;;;;;;;;;;;;;;;;;5116286;28;19961;-56
2022/04/17 08:36:45;;;;;;;;;;;;;;;;;;5116092;28;19914;-48
2022/04/17 08:39:11;;;;;;;;;;;;;;;;;;5116500;28;19908;-50
2022/04/17 08:41:37;;;;;;;;;;;;;;;;;;5116375;28;19966;-46
2022/04/17 08:44:04;;;;;;;;;;;;;;;;;;5115989;28;19919;-42
2022/04/17 08:46:30;;;;;;;;;;;;;;;;;;5116235;28;19912;-43
2022/04/17 08:48:58;;;;;;;;;;;;;;;;;;5115902;28;19912;-49
2022/04/17 08:51:24;;;;;;;;;;;;;;;;;;5115598;28;19918;-51
2022/04/17 08:53:51;;;;;;;;;;;;;;;;;;5116165;28;20007;-47
2022/04/17 08:56:17;;;;;;;;;;;;;;;;;;5115647;28;19922;-45
2022/04/17 08:58:44;;;;;;;;;;;;;;;;;;5116061;28;19930;-49
2022/04/17 09:01:10;;;;;;;;;;;;;;;;;;5115957;28;19922;-54
2022/04/17 09:03:36;;;;;;;;;;;;;;;;;;5116320;28;19987;-49
2022/04/17 09:06:03;;;;;;;;;;;;;;;;;;5111609;28;19924;-46
2022/04/17 09:08:29;;;;;;;;;;;;;;;;;;5095615;28;19908;-44
2022/04/17 09:10:56;;;;;;;;;;;;;;;;;;5095413;28;19915;-49
2022/04/17 09:13:22;;;;;;;;;;;;;;;;;;5095359;28;19912;-50
2022/04/17 09:15:49;;;;;;;;;;;;;;;;;;5095323;28;19940;-47
2022/04/17 09:18:15;;;;;;;;;;;;;;;;;;5095486;28;19936;-50
2022/04/17 09:20:42;;;;;;;;;;;;;;;;;;5099634;28;20309;-56
2022/04/17 09:23:08;;;;;;;;;;;;;;;;;;5114380;28;19960;-49
2022/04/17 09:25:35;;;;;;;;;;;;;;;;;;5115157;28;20019;-52
2022/04/17 09:28:01;;;;;;;;;;;;;;;;;;5115660;28;19923;-47
2022/04/17 09:30:28;;;;;;;;;;;;;;;;;;5115730;28;19908;-52
2022/04/17 09:32:55;;;;;;;;;;;;;;;;;;5114434;28;19911;-50
2022/04/17 09:35:22;;;;;;;;;;;;;;;;;;5114727;28;19907;-47
2022/04/17 09:37:49;;;;;;;;;;;;;;;;;;5115601;28;20076;-49
2022/04/17 09:40:15;;;;;;;;;;;;;;;;;;5115586;28;19926;-55
2022/04/17 09:42:42;;;;;;;;;;;;;;;;;;5115559;28;20334;-48
2022/04/17 09:45:08;;;;;;;;;;;;;;;;;;5115428;28;20251;-55
2022/04/17 09:47:35;;;;;;;;;;;;;;;;;;5115743;28;19999;-48
2022/04/17 09:50:01;;;;;;;;;;;;;;;;;;5115135;28;19908;-59
2022/04/17 09:52:28;;;;;;;;;;;;;;;;;;5115090;28;19908;-45
2022/04/17 09:54:55;;;;;;;;;;;;;;;;;;5115497;28;19994;-47
2022/04/17 09:57:21;;;;;;;;;;;;;;;;;;5115164;28;19908;-44
2022/04/17 09:59:48;;;;;;;;;;;;;;;;;;5115526;28;20043;-55
2022/04/17 10:02:15;;;;;;;;;;;;;;;;;;5115217;27;19920;-56
2022/04/17 10:04:42;;;;;;;;;;;;;;;;;;5114542;28;19916;-52
2022/04/17 10:07:09;;;;;;;;;;;;;;;;;;5114774;28;20473;-45
2022/04/17 10:09:35;;;;;;;;;;;;;;;;;;5114844;28;20358;-53
2022/04/17 10:12:02;;;;;;;;;;;;;;;;;;5114924;28;20004;-54
2022/04/17 10:14:28;;;;;;;;;;;;;;;;;;5114907;27;20243;-46
2022/04/17 10:16:55;;;;;;;;;;;;;;;;;;5115141;27;19916;-54
2022/04/17 10:19:24;;;;;;;;;;;;;;;;;;5114240;28;19908;-50
2022/04/17 10:21:50;;;;;;;;;;;;;;;;;;5114556;28;19920;-56
2022/04/17 10:24:17;;;;;;;;;;;;;;;;;;5114646;28;19991;-51
2022/04/17 10:26:43;;;;;;;;;;;;;;;;;;5113416;28;19929;-51
2022/04/17 10:29:10;;;;;;;;;;;;;;;;;;5114046;28;20386;-55
2022/04/17 10:31:36;;;;;;;;;;;;;;;;;;5114256;28;20319;-55
2022/04/17 10:34:06;;;;;;;;;;;;;;;;;;5114157;28;20337;-57
2022/04/17 10:36:32;;;;;;;;;;;;;;;;;;5113357;28;19908;-57
2022/04/17 10:38:59;;;;;;;;;;;;;;;;;;5114404;28;19946;-51
2022/04/17 10:41:25;;;;;;;;;;;;;;;;;;5114027;28;19915;-59
2022/04/17 10:43:52;;;;;;;;;;;;;;;;;;5114211;28;20002;-55
2022/04/17 10:46:18;;;;;;;;;;;;;;;;;;5114255;28;20006;-53
2022/04/17 10:48:45;;;;;;;;;;;;;;;;;;5113983;28;20000;-51
2022/04/17 10:51:11;;;;;;;;;;;;;;;;;;5113821;28;19907;-57
2022/04/17 10:53:38;;;;;;;;;;;;;;;;;;5111277;28;19908;-55
2022/04/17 10:56:04;;;;;;;;;;;;;;;;;;5093190;28;20269;-50
2022/04/17 10:58:30;;;;;;;;;;;;;;;;;;5093389;28;19912;-55
2022/04/17 11:00:57;;;;;;;;;;;;;;;;;;5100200;28;19915;-48
2022/04/17 11:03:26;;;;;;;;;;;;;;;;;;5113862;28;20011;-52
2022/04/17 11:06:30;;;;;;;;;;;;;;;;;;5113488;28;19963;-50
2022/04/17 11:08:45;;;;;;;;;;;;;;;;;;5110445;28;19911;-47
2022/04/17 11:11:12;;;;;;;;;;;;;;;;;;5113581;28;19907;-49
2022/04/17 11:13:38;;;;;;;;;;;;;;;;;;5114129;28;19953;-50
2022/04/17 11:16:06;;;;;;;;;;;;;;;;;;5113254;28;20011;-58
2022/04/17 11:18:33;;;;;;;;;;;;;;;;;;5113652;28;19955;-49
2022/04/17 11:21:00;;;;;;;;;;;;;;;;;;5113462;28;19920;-56
2022/04/17 11:23:26;;;;;;;;;;;;;;;;;;5113342;28;19960;-47
2022/04/17 11:25:54;;;;;;;;;;;;;;;;;;5112092;28;19912;-52
2022/04/17 11:28:20;;;;;;;;;;;;;;;;;;5092722;28;19908;-56
2022/04/17 11:30:47;;;;;;;;;;;;;;;;;;5093049;28;19999;-57
2022/04/17 11:33:13;;;;;;;;;;;;;;;;;;5093048;28;19908;-53
2022/04/17 11:35:40;;;;;;;;;;;;;;;;;;5110092;28;19961;-54
2022/04/17 11:38:06;;;;;;;;;;;;;;;;;;5113618;28;19908;-54
2022/04/17 11:40:33;;;;;;;;;;;;;;;;;;5113454;28;19911;-57
2022/04/17 11:42:59;;;;;;;;;;;;;;;;;;5113102;28;19914;-49
2022/04/17 11:45:26;;;;;;;;;;;;;;;;;;5113308;28;19972;-58
2022/04/17 11:47:53;;;;;;;;;;;;;;;;;;5114686;28;19908;-55
2022/04/17 11:50:20;;;;;;;;;;;;;;;;;;5117619;28;20014;-47
2022/04/17 11:52:46;;;;;;;;;;;;;;;;;;5117188;28;19915;-55
2022/04/17 11:55:13;;;;;;;;;;;;;;;;;;5116952;28;19912;-48
2022/04/17 11:57:39;;;;;;;;;;;;;;;;;;5117707;28;20355;-56
2022/04/17 12:00:06;;;;;;;;;;;;;;;;;;5116932;28;19969;-53
2022/04/17 12:02:32;;;;;;;;;;;;;;;;;;5117426;28;20376;-54
2022/04/17 12:04:59;;;;;;;;;;;;;;;;;;5115782;28;19969;-51
2022/04/17 12:07:25;;;;;;;;;;;;;;;;;;5116812;28;19912;-57
2022/04/17 12:09:52;;;;;;;;;;;;;;;;;;5117203;28;20452;-46
2022/04/17 12:12:18;;;;;;;;;;;;;;;;;;5117145;28;20278;-55
2022/04/17 12:14:45;;;;;;;;;;;;;;;;;;5117087;28;19919;-49
2022/04/17 12:17:12;;;;;;;;;;;;;;;;;;5117086;28;19996;-52
2022/04/17 12:19:38;;;;;;;;;;;;;;;;;;5115320;28;19908;-46
2022/04/17 12:22:05;;;;;;;;;;;;;;;;;;5116895;28;20049;-52
2022/04/17 12:24:31;;;;;;;;;;;;;;;;;;5116542;27;19914;-47
2022/04/17 12:26:57;;;;;;;;;;;;;;;;;;5116785;28;19931;-52
2022/04/17 12:29:24;;;;;;;;;;;;;;;;;;5116499;28;19907;-51
2022/04/17 12:31:50;;;;;;;;;;;;;;;;;;5117042;28;19958;-54
2022/04/17 12:34:19;;;;;;;;;;;;;;;;;;5116653;28;19916;-53
2022/04/17 12:36:46;;;;;;;;;;;;;;;;;;5116495;28;19911;-53
2022/04/17 12:39:12;;;;;;;;;;;;;;;;;;5116261;28;19998;-51
2022/04/17 12:41:42;;;;;;;;;;;;;;;;;;5116999;28;19920;-46
2022/04/17 12:44:09;;;;;;;;;;;;;;;;;;5116535;28;19912;-52
2022/04/17 12:46:36;;;;;;;;;;;;;;;;;;5116536;28;19915;-46
2022/04/17 12:49:03;;;;;;;;;;;;;;;;;;5116501;28;19908;-46
2022/04/17 12:51:29;;;;;;;;;;;;;;;;;;5106151;28;19915;-45
2022/04/17 12:53:56;;;;;;;;;;;;;;;;;;5096192;28;19912;-55
2022/04/17 12:56:22;;;;;;;;;;;;;;;;;;5095579;28;20378;-49
2022/04/17 12:58:49;;;;;;;;;;;;;;;;;;5095388;28;20279;-49
2022/04/17 13:01:15;;;;;;;;;;;;;;;;;;5098691;28;19923;-47
2022/04/17 13:03:42;;;;;;;;;;;;;;;;;;5116182;28;20006;-50
2022/04/17 13:06:09;;;;;;;;;;;;;;;;;;5095910;28;19927;-56
2022/04/17 13:08:36;;;;;;;;;;;;;;;;;;5095847;28;19940;-51
2022/04/17 13:11:02;;;;;;;;;;;;;;;;;;5095880;28;19908;-55
2022/04/17 13:13:28;;;;;;;;;;;;;;;;;;5095817;28;19981;-50
2022/04/17 13:15:55;;;;;;;;;;;;;;;;;;5095511;28;19912;-44
2022/04/17 13:18:21;;;;;;;;;;;;;;;;;;5095661;28;20403;-47
2022/04/17 13:20:48;;;;;;;;;;;;;;;;;;5095683;28;20381;-46
2022/04/17 13:23:14;;;;;;;;;;;;;;;;;;5095337;28;20343;-48
2022/04/17 13:25:41;;;;;;;;;;;;;;;;;;5095508;28;20332;-54
2022/04/17 13:28:08;;;;;;;;;;;;;;;;;;5095740;28;19909;-55
2022/04/17 13:30:34;;;;;;;;;;;;;;;;;;5095313;28;20344;-61
2022/04/17 13:33:01;;;;;;;;;;;;;;;;;;5095558;28;20359;-43
2022/04/17 13:35:27;;;;;;;;;;;;;;;;;;5094973;28;19908;-48
2022/04/17 13:38:27;;;;;;;;;;;;;;;;;;5095205;28;19912;-53
2022/04/17 13:40:46;;;;;;;;;;;;;;;;;;5093054;28;19919;-49
2022/04/17 13:43:12;;;;;;;;;;;;;;;;;;5094932;28;19954;-47
2022/04/17 13:45:39;;;;;;;;;;;;;;;;;;5094896;28;19915;-46
2022/04/17 13:48:06;;;;;;;;;;;;;;;;;;5094884;28;20309;-44
2022/04/17 13:50:32;;;;;;;;;;;;;;;;;;5095180;28;19908;-46
2022/04/17 13:52:59;;;;;;;;;;;;;;;;;;5094577;28;20481;-42
2022/04/17 13:55:27;;;;;;;;;;;;;;;;;;5094777;28;19965;-55
2022/04/17 13:57:54;;;;;;;;;;;;;;;;;;5094913;28;19908;-46
2022/04/17 14:00:21;;;;;;;;;;;;;;;;;;5094555;28;19912;-47
2022/04/17 14:02:47;;;;;;;;;;;;;;;;;;5094639;28;19908;-50
2022/04/17 14:05:13;;;;;;;;;;;;;;;;;;5107089;28;19998;-45
2022/04/17 14:07:40;;;;;;;;;;;;;;;;;;5115016;28;19904;-42
2022/04/17 14:10:06;;;;;;;;;;;;;;;;;;5114944;28;20299;-53
2022/04/17 14:12:33;;;;;;;;;;;;;;;;;;5114819;28;20354;-43
2022/04/17 14:14:59;;;;;;;;;;;;;;;;;;5114906;28;19961;-43
2022/04/17 14:17:26;;;;;;;;;;;;;;;;;;5114657;28;20311;-47
2022/04/17 14:19:53;;;;;;;;;;;;;;;;;;5114545;28;20273;-45
2022/04/17 14:22:24;;;;;;;;;;;;;;;;;;5113607;28;19954;-52
2022/04/17 14:24:50;;;;;;;;;;;;;;;;;;5114880;28;19907;-50
2022/04/17 14:27:17;;;;;;;;;;;;;;;;;;5114537;28;19966;-50
2022/04/17 14:29:43;;;;;;;;;;;;;;;;;;5114552;28;19915;-47
2022/04/17 14:32:09;;;;;;;;;;;;;;;;;;5114475;28;20000;-52
2022/04/17 14:34:36;;;;;;;;;;;;;;;;;;5114625;28;20299;-53
2022/04/17 14:37:04;;;;;;;;;;;;;;;;;;5114644;28;19991;-44
2022/04/17 14:39:30;;;;;;;;;;;;;;;;;;5114640;28;19965;-49
2022/04/17 14:41:57;;;;;;;;;;;;;;;;;;5114587;28;19981;-42
2022/04/17 14:44:24;;;;;;;;;;;;;;;;;;5114325;28;19908;-43
2022/04/17 14:46:50;;;;;;;;;;;;;;;;;;5114058;28;19908;-50
2022/04/17 14:49:17;;;;;;;;;;;;;;;;;;5113930;28;19908;-45
2022/04/17 14:51:43;;;;;;;;;;;;;;;;;;5113951;28;20286;-46
2022/04/17 14:54:10;;;;;;;;;;;;;;;;;;5114316;28;19908;-51
2022/04/17 14:56:37;;;;;;;;;;;;;;;;;;5114086;28;19915;-48
2022/04/17 14:59:03;;;;;;;;;;;;;;;;;;5114084;28;19911;-55
2022/04/17 15:01:30;;;;;;;;;;;;;;;;;;5114152;28;19981;-53
2022/04/17 15:03:56;;;;;;;;;;;;;;;;;;5114289;28;19914;-54
2022/04/17 15:06:22;;;;;;;;;;;;;;;;;;5114200;28;19915;-54
2022/04/17 15:08:49;;;;;;;;;;;;;;;;;;5114064;28;19908;-56
2022/04/17 15:11:17;;;;;;;;;;;;;;;;;;5113705;28;19914;-48
2022/04/17 15:13:44;;;;;;;;;;;;;;;;;;5114194;28;19943;-50
2022/04/17 15:16:10;;;;;;;;;;;;;;;;;;5114044;28;20347;-53
2022/04/17 15:18:38;;;;;;;;;;;;;;;;;;5112809;28;19961;-47
2022/04/17 15:21:04;;;;;;;;;;;;;;;;;;5113864;28;20300;-46
2022/04/17 15:23:31;;;;;;;;;;;;;;;;;;5113368;28;19908;-43
2022/04/17 15:25:57;;;;;;;;;;;;;;;;;;5114320;28;19908;-47
2022/04/17 15:28:24;;;;;;;;;;;;;;;;;;5113682;28;19908;-50
2022/04/17 15:30:50;;;;;;;;;;;;;;;;;;5113978;28;19977;-56
2022/04/17 15:33:17;;;;;;;;;;;;;;;;;;5113430;28;19914;-56
2022/04/17 15:35:43;;;;;;;;;;;;;;;;;;5113912;28;19960;-54
2022/04/17 15:38:10;;;;;;;;;;;;;;;;;;5113362;28;19908;-55
2022/04/17 15:40:36;;;;;;;;;;;;;;;;;;5113428;28;19915;-54
2022/04/17 15:47:54;;;;;;;;;;;;;;;;;;5113455;28;20290;-50
2022/04/17 15:48:33;;;;;;;;;;;;;;;;;;5113338;28;20373;-56
2022/04/17 15:51:00;;;;;;;;;;;;;;;;;;5113397;28;19926;-58
2022/04/17 15:53:26;;;;;;;;;;;;;;;;;;5112914;28;19930;-57
2022/04/17 15:55:53;;;;;;;;;;;;;;;;;;5113627;28;19907;-51
2022/04/17 15:58:19;;;;;;;;;;;;;;;;;;5113451;28;19908;-55
2022/04/17 16:00:46;;;;;;;;;;;;;;;;;;5113480;28;19912;-56
2022/04/17 16:03:12;;;;;;;;;;;;;;;;;;5112776;28;19915;-55
2022/04/17 16:05:38;;;;;;;;;;;;;;;;;;5113330;28;20289;-56
2022/04/17 16:08:05;;;;;;;;;;;;;;;;;;5113462;28;19934;-56
2022/04/17 16:10:31;;;;;;;;;;;;;;;;;;5112558;28;19908;-56
2022/04/17 16:12:59;;;;;;;;;;;;;;;;;;5113649;28;19908;-57
2022/04/17 16:15:25;;;;;;;;;;;;;;;;;;5112510;28;19919;-57
2022/04/17 16:17:52;;;;;;;;;;;;;;;;;;5113060;28;20334;-56
2022/04/17 16:20:19;;;;;;;;;;;;;;;;;;5113208;28;20277;-57
2022/04/17 16:22:46;;;;;;;;;;;;;;;;;;5113341;28;19914;-55
2022/04/17 16:25:12;;;;;;;;;;;;;;;;;;5113126;28;19915;-51
2022/04/17 16:27:41;;;;;;;;;;;;;;;;;;5113333;28;20065;-57
2022/04/17 16:30:08;;;;;;;;;;;;;;;;;;5113273;28;19915;-57
2022/04/17 16:32:34;;;;;;;;;;;;;;;;;;5113005;28;19939;-55
2022/04/17 16:35:01;;;;;;;;;;;;;;;;;;5115780;28;19908;-56
2022/04/17 16:37:27;;;;;;;;;;;;;;;;;;5116646;28;20409;-50
2022/04/17 16:39:54;;;;;;;;;;;;;;;;;;5116644;28;19951;-58
2022/04/17 16:42:20;;;;;;;;;;;;;;;;;;5116694;28;20281;-52
2022/04/17 16:44:46;;;;;;;;;;;;;;;;;;5116743;28;19908;-56
2022/04/17 16:47:15;;;;;;;;;;;;;;;;;;5116401;28;20255;-53
2022/04/17 16:49:42;;;;;;;;;;;;;;;;;;5116719;27;19998;-55
2022/04/17 16:52:08;;;;;;;;;;;;;;;;;;5116724;28;19908;-51
2022/04/17 16:54:35;;;;;;;;;;;;;;;;;;5116173;28;19912;-55
2022/04/17 16:59:11;;;;;;;;;;;;;;;;;;5116525;28;19908;-52
2022/04/17 16:59:50;;;;;;;;;;;;;;;;;;5116436;28;19950;-51
2022/04/17 17:02:17;;;;;;;;;;;;;;;;;;5116063;28;19922;-55
2022/04/17 17:04:44;;;;;;;;;;;;;;;;;;5116234;28;20385;-46